Time;durP1;ratioP1;P1;durP2;ratioP2;P2;SDS_P1;SDS_P2;PMS_P1;PMS_P2;Temp;Humidity;BMP_temperature;BMP_pressure;BME280_temperature;BME280_humidity;BME280_pressure;Samples;Min_cycle;Max_cycle;Signal;HPM_P1;HPM_P2
2022/01/08 00:00:14;;;;;;;24.12;12.40;;;21.70;84.50;;;;;;1881737;75;21269;-78
2022/01/08 00:02:46;;;;;;;19.52;10.20;;;21.60;84.60;;;;;;1912821;73;21176;-79
2022/01/08 00:05:17;;;;;;;17.27;10.98;;;21.60;84.50;;;;;;1894613;74;21766;-80
2022/01/08 00:07:48;;;;;;;16.27;9.55;;;21.60;84.40;;;;;;1876577;76;21536;-79
2022/01/08 00:10:18;;;;;;;18.32;10.72;;;21.60;84.60;;;;;;1918514;73;21647;-80
2022/01/08 00:12:51;;;;;;;21.57;11.30;;;21.70;84.20;;;;;;1924844;73;21092;-79
2022/01/08 00:15:22;;;;;;;17.45;10.48;;;21.70;83.60;;;;;;1919937;73;21225;-80
2022/01/08 00:17:53;;;;;;;19.15;10.68;;;21.80;83.50;;;;;;1927598;73;21595;-80
2022/01/08 00:20:24;;;;;;;18.95;10.90;;;21.90;83.40;;;;;;1927992;73;21230;-79
2022/01/08 00:22:56;;;;;;;18.80;11.10;;;21.90;82.70;;;;;;1917504;74;21179;-80
2022/01/08 00:25:27;;;;;;;19.02;11.53;;;22.00;82.50;;;;;;1918234;73;21199;-80
2022/01/08 00:27:58;;;;;;;19.35;11.03;;;22.00;82.00;;;;;;1926831;73;21231;-80
2022/01/08 00:30:30;;;;;;;24.05;13.93;;;22.10;82.00;;;;;;1921182;73;21120;-79
2022/01/08 00:33:01;;;;;;;31.75;15.72;;;22.10;81.40;;;;;;1916037;73;21189;-80
2022/01/08 00:35:35;;;;;;;26.27;15.18;;;22.10;81.50;;;;;;1915161;73;21163;-79
2022/01/08 00:38:04;;;;;;;26.93;14.47;;;22.10;81.10;;;;;;1922908;73;21155;-81
2022/01/08 00:40:35;;;;;;;23.40;14.40;;;22.20;81.20;;;;;;1902375;74;21170;-80
2022/01/08 00:43:07;;;;;;;23.98;12.63;;;22.20;81.30;;;;;;1907521;74;21209;-80
2022/01/08 00:45:38;;;;;;;20.48;12.93;;;22.20;80.90;;;;;;1914970;74;21148;-80
2022/01/08 00:48:08;;;;;;;16.37;11.70;;;22.20;81.00;;;;;;1923006;73;21135;-80
2022/01/08 00:50:39;;;;;;;22.60;13.43;;;22.20;80.90;;;;;;1898981;74;21716;-80
2022/01/08 00:53:11;;;;;;;23.42;13.78;;;22.20;81.00;;;;;;1908392;73;21123;-80
2022/01/08 00:55:42;;;;;;;21.02;14.13;;;22.20;80.90;;;;;;1914179;74;21702;-80
2022/01/08 00:58:13;;;;;;;19.73;12.43;;;22.30;80.40;;;;;;1903317;73;21135;-80
2022/01/08 01:00:44;;;;;;;22.87;12.55;;;22.30;80.20;;;;;;1913451;73;21726;-80
2022/01/08 01:03:15;;;;;;;20.95;11.90;;;22.30;80.30;;;;;;1880542;74;21134;-80
2022/01/08 01:05:46;;;;;;;19.40;12.53;;;22.40;80.30;;;;;;1904806;73;21090;-80
2022/01/08 01:08:17;;;;;;;20.75;11.93;;;22.30;80.10;;;;;;1911523;73;21099;-80
2022/01/08 01:10:47;;;;;;;17.35;11.55;;;22.40;80.00;;;;;;1906493;74;21506;-81
2022/01/08 01:13:18;;;;;;;20.35;11.43;;;22.40;79.60;;;;;;1886008;74;21186;-81
2022/01/08 01:15:49;;;;;;;19.23;10.28;;;22.40;79.30;;;;;;1907433;73;21092;-80
2022/01/08 01:18:20;;;;;;;15.85;9.65;;;22.50;79.00;;;;;;1896485;74;21218;-81
2022/01/08 01:20:51;;;;;;;20.52;11.25;;;22.50;78.70;;;;;;1906797;73;21142;-80
2022/01/08 01:23:29;;;;;;;16.55;10.30;;;22.60;78.80;;;;;;1902495;73;21316;-81
2022/01/08 01:26:00;;;;;;;15.30;9.23;;;22.60;78.30;;;;;;1896212;74;21139;-82
2022/01/08 01:41:29;;;;;;;17.25;10.60;;;22.80;77.80;;;;;;1906024;74;21173;-79
2022/01/08 01:48:52;;;;;;;20.25;10.53;;;22.90;77.00;;;;;;1914645;72;21150;-79
2022/01/08 01:51:24;;;;;;;20.00;12.93;;;23.00;77.00;;;;;;1902154;72;21146;-81
2022/01/08 01:53:55;;;;;;;18.15;11.78;;;23.00;77.00;;;;;;1911487;73;21167;-81
2022/01/08 01:56:28;;;;;;;18.15;11.88;;;23.00;76.70;;;;;;1899447;73;21641;-81
2022/01/08 01:59:00;;;;;;;25.95;14.38;;;23.00;77.10;;;;;;1863163;74;21220;-79
2022/01/08 02:01:32;;;;;;;24.15;14.25;;;23.10;77.20;;;;;;1895899;73;21134;-81
2022/01/08 02:04:03;;;;;;;24.12;14.73;;;23.10;76.80;;;;;;1896467;73;21152;-81
2022/01/08 02:06:34;;;;;;;26.55;17.15;;;23.20;76.90;;;;;;1903610;73;21147;-81
2022/01/08 02:09:05;;;;;;;26.80;17.00;;;23.20;77.10;;;;;;1907681;73;21283;-79
2022/01/08 02:11:37;;;;;;;25.88;15.58;;;23.30;77.20;;;;;;1908917;73;21135;-80
2022/01/08 02:14:07;;;;;;;22.58;14.93;;;23.40;77.10;;;;;;1885064;74;21690;-80
2022/01/08 02:16:38;;;;;;;24.43;15.00;;;23.40;76.90;;;;;;1910168;73;21124;-80
2022/01/08 02:19:09;;;;;;;16.52;11.60;;;23.40;76.70;;;;;;1881157;74;21194;-81
2022/01/08 02:21:39;;;;;;;20.02;12.33;;;23.50;77.10;;;;;;1907536;74;21211;-79
2022/01/08 02:24:10;;;;;;;20.25;12.68;;;23.50;76.10;;;;;;1878164;74;21154;-80
2022/01/08 02:26:41;;;;;;;23.38;13.38;;;23.50;76.10;;;;;;1881654;74;21131;-80
2022/01/08 02:29:14;;;;;;;27.32;15.00;;;23.50;76.00;;;;;;1881212;74;21194;-79
2022/01/08 02:31:47;;;;;;;23.07;13.48;;;23.60;76.50;;;;;;1879575;73;21235;-81
2022/01/08 02:34:18;;;;;;;25.05;14.00;;;23.60;76.40;;;;;;1885391;74;21380;-81
2022/01/08 02:36:49;;;;;;;26.57;13.95;;;23.70;76.20;;;;;;1869684;74;21232;-80
2022/01/08 02:39:20;;;;;;;25.23;12.68;;;23.80;75.80;;;;;;1883585;74;21264;-80
2022/01/08 02:41:56;;;;;;;17.67;11.08;;;23.80;75.50;;;;;;1879322;74;21162;-80
2022/01/08 02:44:24;;;;;;;21.65;12.10;;;23.90;75.10;;;;;;1907295;74;21182;-80
2022/01/08 02:46:58;;;;;;;19.05;11.50;;;24.00;74.80;;;;;;1898242;73;21163;-78
2022/01/08 02:49:28;;;;;;;20.95;12.35;;;24.00;74.60;;;;;;1905667;73;21138;-80
2022/01/08 02:51:59;;;;;;;20.27;13.35;;;24.00;74.50;;;;;;1907844;74;21150;-81
2022/01/08 02:54:30;;;;;;;18.75;13.25;;;24.10;74.30;;;;;;1877209;74;21605;-82
2022/01/08 02:57:01;;;;;;;22.22;11.80;;;24.20;74.60;;;;;;1912398;72;21163;-79
2022/01/08 02:59:33;;;;;;;19.60;11.68;;;24.20;73.70;;;;;;1910235;73;21189;-82
2022/01/08 03:02:04;;;;;;;19.95;12.07;;;24.20;73.30;;;;;;1917833;73;21193;-81
2022/01/08 03:04:36;;;;;;;23.20;12.28;;;24.30;73.30;;;;;;1913657;73;21107;-81
2022/01/08 03:07:07;;;;;;;26.05;14.30;;;24.30;73.20;;;;;;1895891;73;21220;-82
2022/01/08 03:09:41;;;;;;;25.68;14.05;;;24.40;73.40;;;;;;1884583;73;21167;-81
2022/01/08 03:12:11;;;;;;;27.55;15.45;;;24.40;73.20;;;;;;1890801;74;21694;-81
2022/01/08 03:14:42;;;;;;;24.92;14.53;;;24.40;73.10;;;;;;1862986;74;21207;-81
2022/01/08 03:17:13;;;;;;;24.20;15.05;;;24.50;73.30;;;;;;1889761;74;21123;-81
2022/01/08 03:19:45;;;;;;;20.48;14.00;;;24.50;73.00;;;;;;1891144;74;21647;-82
2022/01/08 03:22:16;;;;;;;23.12;14.13;;;24.60;72.80;;;;;;1906706;74;21162;-82
2022/01/08 03:24:47;;;;;;;20.12;13.43;;;24.60;72.60;;;;;;1914384;73;21275;-82
2022/01/08 03:27:25;;;;;;;18.50;11.80;;;24.70;72.50;;;;;;1918192;74;21181;-81
2022/01/08 03:30:05;;;;;;;17.05;10.53;;;24.70;72.20;;;;;;1887372;74;21305;-80
2022/01/08 03:32:36;;;;;;;17.90;11.38;;;24.80;71.70;;;;;;1913652;73;21083;-80
2022/01/08 03:35:07;;;;;;;19.82;11.60;;;24.80;71.30;;;;;;1884256;73;21160;-80
2022/01/08 03:37:49;;;;;;;15.88;11.10;;;24.90;70.90;;;;;;1912824;73;21185;-81
2022/01/08 03:40:22;;;;;;;19.67;11.88;;;25.00;70.50;;;;;;1889583;72;21546;-80
2022/01/08 03:43:11;;;;;;;17.17;10.98;;;25.10;70.40;;;;;;1864327;74;21103;-80
2022/01/08 03:45:45;;;;;;;17.25;11.18;;;25.30;70.70;;;;;;1901263;74;21161;-79
2022/01/08 03:50:48;;;;;;;15.88;9.68;;;25.50;69.60;;;;;;1911272;73;21673;-78
2022/01/08 03:53:19;;;;;;;18.30;11.12;;;25.50;69.10;;;;;;1881532;73;21187;-80
2022/01/08 03:55:50;;;;;;;23.80;11.25;;;25.60;68.80;;;;;;1902337;73;21095;-80
2022/01/08 03:58:27;;;;;;;16.90;11.10;;;25.70;68.30;;;;;;1886201;73;21170;-83
2022/01/08 04:01:03;;;;;;;17.42;10.55;;;25.80;68.10;;;;;;1906978;74;21166;-80
2022/01/08 04:03:34;;;;;;;18.37;11.15;;;25.90;67.90;;;;;;1894967;73;21247;-80
2022/01/08 04:06:05;;;;;;;22.20;11.10;;;26.10;67.30;;;;;;1923032;73;21076;-79
2022/01/08 04:08:36;;;;;;;19.90;11.38;;;26.20;66.90;;;;;;1903619;73;21260;-80
2022/01/08 04:11:08;;;;;;;19.82;10.75;;;26.30;66.70;;;;;;1846693;76;21104;-81
2022/01/08 04:13:46;;;;;;;21.23;11.78;;;26.30;66.60;;;;;;1882195;74;21221;-79
2022/01/08 04:16:22;;;;;;;20.80;11.48;;;26.40;66.30;;;;;;1889547;73;21170;-71
2022/01/08 04:18:49;;;;;;;20.43;10.93;;;26.50;66.20;;;;;;1848259;76;21713;-71
2022/01/08 04:23:54;;;;;;;19.55;11.15;;;26.70;65.20;;;;;;1876181;74;21091;-72
2022/01/08 04:26:25;;;;;;;15.05;10.98;;;26.80;65.10;;;;;;1923176;73;21677;-72
2022/01/08 04:28:56;;;;;;;19.85;11.90;;;26.90;64.50;;;;;;1878961;74;21182;-72
2022/01/08 04:31:27;;;;;;;20.40;11.20;;;27.00;64.10;;;;;;1892073;73;21807;-71
2022/01/08 04:33:58;;;;;;;17.40;11.88;;;27.10;63.70;;;;;;1889425;75;21652;-71
2022/01/08 04:36:29;;;;;;;20.80;12.75;;;27.20;63.50;;;;;;1908433;74;21218;-71
2022/01/08 04:39:00;;;;;;;17.82;11.73;;;27.30;62.70;;;;;;1901748;74;21126;-71
2022/01/08 04:41:31;;;;;;;15.98;11.20;;;27.40;63.10;;;;;;1927829;74;21603;-72
2022/01/08 04:44:01;;;;;;;25.60;13.03;;;27.60;62.60;;;;;;1939161;73;21108;-71
2022/01/08 04:46:32;;;;;;;18.55;12.60;;;27.60;62.80;;;;;;1910648;73;21233;-73
2022/01/08 04:49:03;;;;;;;17.75;11.22;;;27.70;61.70;;;;;;1871185;75;21205;-72
2022/01/08 04:51:34;;;;;;;19.42;11.78;;;27.70;61.70;;;;;;1880963;74;21113;-72
2022/01/08 04:54:05;;;;;;;17.37;10.82;;;27.80;61.70;;;;;;1887441;75;21158;-72
2022/01/08 04:56:36;;;;;;;15.25;10.00;;;27.80;61.40;;;;;;1897343;74;21142;-71
2022/01/08 04:59:07;;;;;;;18.42;10.70;;;27.90;59.50;;;;;;1925423;73;21605;-71
2022/01/08 05:01:38;;;;;;;18.75;11.68;;;28.00;60.50;;;;;;1916003;73;21186;-72
2022/01/08 05:04:09;;;;;;;19.60;11.93;;;28.10;59.50;;;;;;1916236;72;21126;-72
2022/01/08 05:06:41;;;;;;;19.98;12.10;;;28.20;59.00;;;;;;1894522;74;21165;-73
2022/01/08 05:09:12;;;;;;;21.65;12.15;;;28.30;59.30;;;;;;1922017;72;21729;-70
2022/01/08 05:11:43;;;;;;;17.07;10.85;;;28.40;58.70;;;;;;1912864;72;21181;-71
2022/01/08 05:14:14;;;;;;;18.27;11.28;;;28.40;58.20;;;;;;1901253;73;21177;-70
2022/01/08 05:16:45;;;;;;;15.78;10.85;;;28.50;57.30;;;;;;1905417;74;21226;-71
2022/01/08 05:19:24;;;;;;;16.07;10.10;;;28.60;57.60;;;;;;1918570;73;21639;-70
2022/01/08 05:21:55;;;;;;;17.45;12.30;;;28.70;57.20;;;;;;1894821;74;21123;-71
2022/01/08 05:24:22;;;;;;;16.45;12.10;;;28.80;57.10;;;;;;1912853;73;21548;-72
2022/01/08 05:26:52;;;;;;;19.02;12.23;;;28.90;56.70;;;;;;1911503;74;21208;-72
2022/01/08 05:29:23;;;;;;;19.62;12.37;;;28.90;56.80;;;;;;1898916;74;21201;-72
2022/01/08 05:31:54;;;;;;;22.00;13.65;;;29.00;56.90;;;;;;1899808;73;21630;-70
2022/01/08 05:34:25;;;;;;;24.63;13.58;;;29.10;56.40;;;;;;1907035;73;21153;-70
2022/01/08 05:36:55;;;;;;;18.35;13.03;;;29.10;56.50;;;;;;1926912;73;21106;-71
2022/01/08 05:39:26;;;;;;;16.97;12.10;;;29.20;56.70;;;;;;1905144;73;21500;-71
2022/01/08 05:41:57;;;;;;;16.35;11.60;;;29.30;56.10;;;;;;1883249;74;21563;-72
2022/01/08 05:44:28;;;;;;;15.45;10.08;;;29.30;55.90;;;;;;1909483;73;21076;-72
2022/01/08 05:46:59;;;;;;;15.88;9.83;;;29.30;55.60;;;;;;1918982;73;21164;-73
2022/01/08 05:49:30;;;;;;;16.45;9.70;;;29.30;54.70;;;;;;1871559;74;21412;-72
2022/01/08 05:52:01;;;;;;;15.05;8.98;;;29.30;55.90;;;;;;1898467;73;21507;-73
2022/01/08 05:54:32;;;;;;;13.53;8.28;;;29.40;54.20;;;;;;1889904;74;21559;-71
2022/01/08 05:57:03;;;;;;;15.72;9.43;;;29.40;54.40;;;;;;1887438;74;21274;-71
2022/01/08 05:59:34;;;;;;;15.93;8.95;;;29.40;53.90;;;;;;1873525;74;21275;-71
2022/01/08 06:02:06;;;;;;;14.65;9.38;;;29.50;54.50;;;;;;1922599;73;21142;-71
2022/01/08 06:04:38;;;;;;;14.70;8.33;;;29.60;55.30;;;;;;1916922;73;21118;-70
2022/01/08 06:07:09;;;;;;;15.25;8.55;;;29.70;54.40;;;;;;1889415;73;21139;-70
2022/01/08 06:09:40;;;;;;;12.45;7.92;;;29.70;53.90;;;;;;1900667;74;21203;-69
2022/01/08 06:12:11;;;;;;;11.48;7.78;;;29.70;53.50;;;;;;1876419;74;21182;-69
2022/01/08 06:14:42;;;;;;;12.30;8.28;;;29.70;53.60;;;;;;1895587;74;21181;-69
2022/01/08 06:17:14;;;;;;;11.08;7.42;;;29.70;52.60;;;;;;1918258;74;21209;-69
2022/01/08 06:19:44;;;;;;;14.05;8.83;;;29.70;51.90;;;;;;1915150;74;21075;-69
2022/01/08 06:22:17;;;;;;;14.23;8.58;;;29.70;53.00;;;;;;1917099;74;21621;-70
2022/01/08 06:24:48;;;;;;;12.53;6.78;;;29.70;53.00;;;;;;1920066;74;21501;-70
2022/01/08 06:27:19;;;;;;;14.63;6.67;;;29.70;52.70;;;;;;1938992;73;22386;-69
2022/01/08 06:29:49;;;;;;;9.08;6.53;;;29.70;52.00;;;;;;1922445;73;21140;-70
2022/01/08 06:32:20;;;;;;;12.37;7.17;;;29.70;52.50;;;;;;1893420;73;22453;-69
2022/01/08 06:34:51;;;;;;;11.90;7.33;;;29.80;52.20;;;;;;1886267;74;21075;-69
2022/01/08 06:37:22;;;;;;;10.08;7.55;;;29.70;52.20;;;;;;1884461;74;21382;-69
2022/01/08 06:39:52;;;;;;;11.80;7.60;;;29.80;52.40;;;;;;1880683;75;21163;-70
2022/01/08 06:42:23;;;;;;;12.25;7.08;;;29.80;52.60;;;;;;1913999;74;21208;-70
2022/01/08 06:44:54;;;;;;;14.50;8.10;;;29.70;52.40;;;;;;1916740;73;21542;-70
2022/01/08 06:47:25;;;;;;;12.18;7.53;;;29.70;52.90;;;;;;1920722;73;21241;-70
2022/01/08 06:49:56;;;;;;;10.38;7.70;;;29.80;52.90;;;;;;1881739;74;21591;-70
2022/01/08 06:52:27;;;;;;;11.75;7.58;;;29.80;52.50;;;;;;1928068;73;21168;-69
2022/01/08 06:54:58;;;;;;;12.75;8.45;;;29.80;52.50;;;;;;1886054;75;21241;-70
2022/01/08 06:57:29;;;;;;;16.10;8.85;;;29.90;51.60;;;;;;1894309;74;21574;-70
2022/01/08 07:00:02;;;;;;;12.53;9.00;;;29.90;51.70;;;;;;1877782;74;21606;-70
2022/01/08 07:02:33;;;;;;;11.75;7.92;;;30.00;51.30;;;;;;1892248;74;21266;-70
2022/01/08 07:05:04;;;;;;;14.05;8.10;;;30.10;51.40;;;;;;1880386;75;21634;-70
2022/01/08 07:07:34;;;;;;;12.33;8.18;;;30.10;51.60;;;;;;1876141;75;21131;-70
2022/01/08 07:10:06;;;;;;;13.35;8.35;;;30.10;51.50;;;;;;1885677;74;21680;-70
2022/01/08 07:12:37;;;;;;;13.78;8.40;;;30.20;51.10;;;;;;1883213;74;21151;-70
2022/01/08 07:15:08;;;;;;;9.33;7.33;;;30.20;52.10;;;;;;1903847;74;21133;-70
2022/01/08 07:17:41;;;;;;;13.48;8.33;;;30.20;50.70;;;;;;1904996;73;21588;-70
2022/01/08 07:20:13;;;;;;;11.63;7.53;;;30.20;51.00;;;;;;1913234;74;21150;-70
2022/01/08 07:22:43;;;;;;;13.65;8.70;;;30.20;50.10;;;;;;1910958;73;21083;-70
2022/01/08 07:25:14;;;;;;;12.70;8.50;;;30.10;50.40;;;;;;1911804;74;21146;-70
2022/01/08 07:27:45;;;;;;;10.40;7.53;;;30.10;50.50;;;;;;1914359;74;21249;-70
2022/01/08 07:30:18;;;;;;;11.30;7.25;;;30.00;50.60;;;;;;1907643;73;21268;-69
2022/01/08 07:32:51;;;;;;;13.98;7.75;;;30.10;50.90;;;;;;1927079;72;21688;-69
2022/01/08 07:35:23;;;;;;;13.32;7.40;;;30.10;51.30;;;;;;1898087;73;21162;-70
2022/01/08 07:37:54;;;;;;;11.43;7.97;;;30.20;51.70;;;;;;1889582;74;21134;-69
2022/01/08 07:40:25;;;;;;;15.85;7.45;;;30.20;50.70;;;;;;1900572;73;21237;-70
2022/01/08 07:42:56;;;;;;;12.43;7.72;;;30.30;50.90;;;;;;1882105;75;21203;-69
2022/01/08 07:45:27;;;;;;;13.55;7.70;;;30.30;50.40;;;;;;1915987;73;21061;-69
2022/01/08 07:47:58;;;;;;;10.85;8.15;;;30.30;50.70;;;;;;1910886;74;21666;-70
2022/01/08 07:50:29;;;;;;;12.58;8.15;;;30.30;50.20;;;;;;1914700;73;21170;-68
2022/01/08 07:53:00;;;;;;;14.93;8.93;;;30.30;50.00;;;;;;1894780;74;21527;-69
2022/01/08 07:55:31;;;;;;;10.43;8.40;;;30.30;49.90;;;;;;1910783;74;21185;-69
2022/01/08 07:58:02;;;;;;;12.93;8.50;;;30.20;50.50;;;;;;1916761;73;21221;-69
2022/01/08 08:00:32;;;;;;;13.90;8.50;;;30.20;50.50;;;;;;1894718;74;21133;-70
2022/01/08 08:03:03;;;;;;;11.95;8.10;;;30.10;50.00;;;;;;1897641;73;22079;-70
2022/01/08 08:05:35;;;;;;;17.15;8.45;;;30.10;51.10;;;;;;1892160;73;21152;-70
2022/01/08 08:08:05;;;;;;;12.20;8.10;;;30.10;50.30;;;;;;1895911;73;21060;-70
2022/01/08 08:10:36;;;;;;;12.25;9.05;;;30.00;50.50;;;;;;1881139;75;21126;-70
2022/01/08 08:13:07;;;;;;;14.05;8.60;;;29.90;50.50;;;;;;1878599;74;21102;-69
2022/01/08 08:15:37;;;;;;;10.00;7.50;;;29.90;50.10;;;;;;1892856;74;21664;-69
2022/01/08 08:18:08;;;;;;;13.00;7.95;;;29.90;50.70;;;;;;1882606;74;21087;-70
2022/01/08 08:20:40;;;;;;;13.18;7.62;;;29.90;50.30;;;;;;1900009;74;21582;-70
2022/01/08 08:23:11;;;;;;;13.50;8.98;;;29.90;50.60;;;;;;1899364;73;21162;-69
2022/01/08 08:25:42;;;;;;;13.30;8.53;;;29.90;50.80;;;;;;1944003;73;21180;-69
2022/01/08 08:28:14;;;;;;;11.63;8.08;;;29.90;50.60;;;;;;1914134;73;21168;-69
2022/01/08 08:30:45;;;;;;;13.38;8.58;;;29.90;50.70;;;;;;1866129;75;21202;-70
2022/01/08 08:33:15;;;;;;;12.88;8.88;;;29.90;50.70;;;;;;1886369;74;21150;-71
2022/01/08 08:35:47;;;;;;;11.65;8.48;;;29.90;50.60;;;;;;1890223;73;21093;-70
2022/01/08 08:38:18;;;;;;;13.50;8.83;;;29.90;50.50;;;;;;1900772;74;21143;-70
2022/01/08 08:40:51;;;;;;;11.03;8.38;;;29.80;50.80;;;;;;1871951;73;21599;-71
2022/01/08 08:43:22;;;;;;;17.15;10.20;;;29.80;50.10;;;;;;1893198;74;21154;-70
2022/01/08 08:45:53;;;;;;;12.43;9.38;;;29.80;50.30;;;;;;1886791;73;21544;-71
2022/01/08 08:48:24;;;;;;;14.07;9.25;;;29.80;50.60;;;;;;1903844;73;21129;-70
2022/01/08 08:50:55;;;;;;;14.53;10.20;;;29.80;50.90;;;;;;1880317;74;21162;-70
2022/01/08 08:53:26;;;;;;;13.48;9.33;;;29.80;50.90;;;;;;1901233;73;21209;-70
2022/01/08 08:55:57;;;;;;;16.65;9.83;;;29.80;50.90;;;;;;1921920;73;21128;-70
2022/01/08 08:58:29;;;;;;;12.90;9.55;;;29.70;50.30;;;;;;1912019;73;21146;-70
2022/01/08 09:00:59;;;;;;;11.75;8.75;;;29.80;50.80;;;;;;1848328;75;21223;-70
2022/01/08 09:03:30;;;;;;;14.47;9.80;;;29.70;50.80;;;;;;1906914;74;21095;-69
2022/01/08 09:06:02;;;;;;;14.98;9.13;;;29.70;51.10;;;;;;1894952;74;21104;-70
2022/01/08 09:08:33;;;;;;;15.55;9.00;;;29.60;51.10;;;;;;1906251;73;21619;-70
2022/01/08 09:11:04;;;;;;;12.47;9.10;;;29.60;50.90;;;;;;1918250;73;21148;-71
2022/01/08 09:13:35;;;;;;;12.18;8.85;;;29.60;50.60;;;;;;1944460;73;22882;-68
2022/01/08 09:16:07;;;;;;;13.38;9.03;;;29.60;50.80;;;;;;1890714;74;21210;-71
2022/01/08 09:18:39;;;;;;;13.85;8.83;;;29.60;50.80;;;;;;1902589;73;21723;-69
2022/01/08 09:21:11;;;;;;;15.00;9.45;;;29.60;51.10;;;;;;1899250;73;21139;-83
2022/01/08 09:23:42;;;;;;;15.32;8.90;;;29.60;51.00;;;;;;1900466;74;21163;-84
2022/01/08 09:26:14;;;;;;;18.07;9.75;;;29.60;51.60;;;;;;1910669;73;21164;-83
2022/01/08 09:28:45;;;;;;;13.32;9.20;;;29.60;51.10;;;;;;1908944;73;21197;-83
2022/01/08 09:31:18;;;;;;;19.55;9.43;;;29.50;50.90;;;;;;1913602;73;21176;-83
2022/01/08 09:33:48;;;;;;;16.55;8.73;;;29.50;51.10;;;;;;1917117;73;21194;-84
2022/01/08 09:36:22;;;;;;;15.38;9.28;;;29.50;50.80;;;;;;1856396;75;21245;-83
2022/01/08 09:39:12;;;;;;;12.98;9.50;;;29.50;50.90;;;;;;1874690;74;21159;-82
2022/01/08 09:41:42;;;;;;;15.28;9.40;;;29.50;50.70;;;;;;1869450;76;21163;-82
2022/01/08 09:44:14;;;;;;;16.32;9.13;;;29.50;51.10;;;;;;1906311;74;21549;-83
2022/01/08 09:46:45;;;;;;;15.43;10.50;;;29.50;50.80;;;;;;1927696;74;21198;-82
2022/01/08 09:49:16;;;;;;;12.53;9.28;;;29.50;50.80;;;;;;1930104;73;21746;-82
2022/01/08 09:51:47;;;;;;;15.18;9.05;;;29.50;51.20;;;;;;1930390;72;21131;-82
2022/01/08 09:54:18;;;;;;;15.72;8.98;;;29.40;51.40;;;;;;1914548;73;21169;-83
2022/01/08 09:56:50;;;;;;;14.07;9.20;;;29.40;51.50;;;;;;1902203;73;21204;-82
2022/01/08 09:59:24;;;;;;;15.55;9.10;;;29.40;51.90;;;;;;1880569;74;21808;-82
2022/01/08 10:01:58;;;;;;;15.08;9.43;;;29.30;50.90;;;;;;1868963;74;21198;-84
2022/01/08 10:04:33;;;;;;;15.43;9.15;;;29.30;51.10;;;;;;1871215;74;21741;-83
2022/01/08 10:07:06;;;;;;;12.55;10.25;;;29.20;51.10;;;;;;1916552;72;21138;-82
2022/01/08 10:09:37;;;;;;;16.10;10.23;;;29.20;51.30;;;;;;1892728;72;21638;-83
2022/01/08 10:12:09;;;;;;;14.53;10.63;;;29.20;51.50;;;;;;1905531;73;21155;-83
2022/01/08 10:17:13;;;;;;;15.93;10.88;;;29.10;51.60;;;;;;1905354;74;21126;-82
2022/01/08 10:17:15;;;;;;;16.80;10.95;;;29.10;51.80;;;;;;1895003;74;21517;-81
2022/01/08 10:19:46;;;;;;;16.67;11.57;;;29.00;51.70;;;;;;1902206;74;21160;-82
2022/01/08 10:22:19;;;;;;;18.10;12.18;;;29.00;51.70;;;;;;1904400;74;21182;-82
2022/01/08 10:24:52;;;;;;;18.92;14.10;;;29.00;52.00;;;;;;1905843;74;21565;-82
2022/01/08 10:27:25;;;;;;;31.42;14.98;;;28.90;52.10;;;;;;1895274;74;21214;-82
2022/01/08 10:29:56;;;;;;;28.20;14.58;;;28.90;52.40;;;;;;1926484;73;21202;-82
2022/01/08 10:32:27;;;;;;;27.82;15.20;;;28.80;52.60;;;;;;1951726;72;21676;-82
2022/01/08 10:34:58;;;;;;;21.93;12.65;;;28.80;52.80;;;;;;1947003;73;21183;-82
2022/01/08 10:37:30;;;;;;;26.85;13.13;;;28.70;52.80;;;;;;1943081;73;21583;-82
2022/01/08 10:40:01;;;;;;;39.75;14.55;;;28.70;53.30;;;;;;1938759;73;21117;-81
2022/01/08 10:42:34;;;;;;;38.73;13.18;;;28.70;54.20;;;;;;1948507;73;21145;-82
2022/01/08 10:45:07;;;;;;;33.18;14.10;;;28.60;54.50;;;;;;1902268;73;21198;-82
2022/01/08 10:47:38;;;;;;;20.65;12.18;;;28.50;54.60;;;;;;1908520;74;21151;-82
2022/01/08 10:50:10;;;;;;;28.67;12.18;;;28.50;54.90;;;;;;1935533;73;23090;-82
2022/01/08 10:52:43;;;;;;;23.83;12.20;;;28.40;55.00;;;;;;1944942;72;21708;-81
2022/01/08 10:55:15;;;;;;;25.05;13.78;;;28.30;55.30;;;;;;1940642;73;21167;-82
2022/01/08 10:57:47;;;;;;;21.57;11.65;;;28.20;55.40;;;;;;1943395;73;21218;-83
2022/01/08 11:00:19;;;;;;;21.62;11.55;;;28.20;55.60;;;;;;1934076;73;21230;-83
2022/01/08 11:02:50;;;;;;;16.75;10.72;;;28.10;55.60;;;;;;1916046;74;21241;-83
2022/01/08 11:05:21;;;;;;;20.72;12.53;;;28.10;55.70;;;;;;1901538;74;21721;-83
2022/01/08 11:07:51;;;;;;;31.75;12.43;;;28.00;55.80;;;;;;1888723;75;21141;-82
2022/01/08 11:10:23;;;;;;;23.32;13.48;;;28.00;55.90;;;;;;1904824;74;21150;-83
2022/01/08 11:12:54;;;;;;;23.18;12.88;;;27.90;56.00;;;;;;1927262;74;21587;-83
2022/01/08 11:15:58;;;;;;;29.35;13.70;;;27.90;56.10;;;;;;1925331;74;21674;-83
2022/01/08 11:18:01;;;;;;;20.90;14.13;;;27.80;56.30;;;;;;1921156;74;21132;-82
2022/01/08 11:20:33;;;;;;;19.80;12.78;;;27.80;56.50;;;;;;1927446;73;21120;-83
2022/01/08 11:23:05;;;;;;;21.20;12.98;;;27.70;56.70;;;;;;1941589;73;21117;-83
2022/01/08 11:25:38;;;;;;;22.52;12.37;;;27.70;56.80;;;;;;1943110;73;21145;-82
2022/01/08 11:28:11;;;;;;;22.90;14.43;;;27.70;57.10;;;;;;1943442;73;21199;-83
2022/01/08 11:30:45;;;;;;;17.82;12.45;;;27.70;57.20;;;;;;1888429;75;21613;-83
2022/01/08 11:33:28;;;;;;;16.93;12.23;;;27.60;57.20;;;;;;1895761;73;21100;-84
2022/01/08 11:35:51;;;;;;;18.57;12.75;;;27.60;58.00;;;;;;1916101;74;21154;-83
2022/01/08 11:38:24;;;;;;;21.35;13.25;;;27.50;57.50;;;;;;1918146;74;21346;-83
2022/01/08 11:40:57;;;;;;;25.70;14.23;;;27.50;58.60;;;;;;1916909;74;21138;-83
2022/01/08 11:43:32;;;;;;;19.05;13.40;;;27.40;57.80;;;;;;1922841;74;21084;-83
2022/01/08 11:46:05;;;;;;;22.05;13.30;;;27.40;57.90;;;;;;1928321;74;21253;-82
2022/01/08 11:48:39;;;;;;;25.43;12.98;;;27.40;58.00;;;;;;1927282;74;21624;-83
2022/01/08 11:51:14;;;;;;;22.27;13.80;;;27.30;58.10;;;;;;1927206;74;21096;-83
2022/01/08 11:53:46;;;;;;;21.57;12.78;;;27.30;58.40;;;;;;1925808;74;22018;-82
2022/01/08 11:56:19;;;;;;;19.87;13.43;;;27.20;58.00;;;;;;1891804;74;21566;-82
2022/01/08 11:58:53;;;;;;;22.70;14.23;;;27.20;58.30;;;;;;1919553;74;21199;-82
2022/01/08 12:01:23;;;;;;;21.85;13.70;;;27.20;58.70;;;;;;1869908;75;21729;-82
2022/01/08 12:03:55;;;;;;;23.47;13.90;;;27.20;58.70;;;;;;1894408;75;21131;-82
2022/01/08 12:06:33;;;;;;;20.90;13.93;;;27.10;58.80;;;;;;1893893;75;21160;-81
2022/01/08 12:11:44;;;;;;;24.10;14.00;;;27.10;59.60;;;;;;1920985;73;21089;-81
2022/01/08 12:14:17;;;;;;;26.40;15.43;;;27.10;59.50;;;;;;1926053;72;21216;-82
2022/01/08 12:16:51;;;;;;;28.38;14.50;;;27.00;59.30;;;;;;1867878;74;21808;-82
2022/01/08 12:19:24;;;;;;;22.85;15.28;;;27.00;60.30;;;;;;1891009;73;21315;-81
2022/01/08 12:21:55;;;;;;;29.32;16.15;;;27.00;59.40;;;;;;1915952;72;21622;-81
2022/01/08 12:24:33;;;;;;;27.07;16.40;;;27.00;59.80;;;;;;1872545;75;21246;-81
2022/01/08 12:27:04;;;;;;;41.80;17.17;;;27.00;60.20;;;;;;1904464;74;21610;-82
2022/01/08 12:29:37;;;;;;;28.23;17.00;;;26.90;60.20;;;;;;1853020;75;21179;-82
2022/01/08 12:32:12;;;;;;;33.10;18.40;;;26.90;60.60;;;;;;1882347;73;21144;-82
2022/01/08 12:34:46;;;;;;;40.12;19.65;;;26.90;60.60;;;;;;1890332;73;21081;-82
2022/01/08 12:37:15;;;;;;;29.48;19.25;;;26.90;61.10;;;;;;1908353;73;21200;-82
2022/01/08 12:39:48;;;;;;;40.78;22.07;;;26.80;61.00;;;;;;1914325;73;21146;-81
2022/01/08 12:42:21;;;;;;;34.05;18.67;;;26.80;61.20;;;;;;1908514;72;22180;-83
2022/01/08 12:44:54;;;;;;;29.95;17.50;;;26.80;61.30;;;;;;1858956;74;21725;-81
2022/01/08 12:47:28;;;;;;;30.17;20.00;;;26.80;62.00;;;;;;1876882;74;21583;-81
2022/01/08 12:50:01;;;;;;;38.15;20.80;;;26.80;60.90;;;;;;1904352;73;21154;-82
2022/01/08 12:52:32;;;;;;;36.42;23.73;;;26.80;60.90;;;;;;1895262;74;21103;-83
2022/01/08 12:55:05;;;;;;;41.70;21.90;;;26.80;61.20;;;;;;1907886;72;21126;-81
2022/01/08 12:57:39;;;;;;;33.10;20.90;;;26.80;61.60;;;;;;1884478;73;21217;-81
2022/01/08 13:00:10;;;;;;;33.53;21.25;;;26.80;61.30;;;;;;1897815;73;21591;-82
2022/01/08 13:02:47;;;;;;;33.58;22.50;;;26.80;61.30;;;;;;1883701;74;22048;-81
2022/01/08 13:05:18;;;;;;;40.15;22.73;;;26.80;61.70;;;;;;1850383;74;21764;-82
2022/01/08 13:07:51;;;;;;;33.00;22.65;;;26.70;61.80;;;;;;1905403;74;21238;-82
2022/01/08 13:10:23;;;;;;;37.28;21.33;;;26.70;63.10;;;;;;1895942;73;21786;-81
2022/01/08 13:12:56;;;;;;;39.45;23.90;;;26.60;61.90;;;;;;1889309;73;21176;-82
2022/01/08 13:15:30;;;;;;;40.70;24.67;;;26.60;62.20;;;;;;1893078;74;21504;-81
2022/01/08 13:18:03;;;;;;;52.53;24.85;;;26.50;62.40;;;;;;1917939;72;21639;-82